Terminal Aerodrome Forecast
Issued by NWS Newport/Morehead City, NC

Home | Current Version | Previous Version | Text Only | Print | Product List | Glossary On
Versions: 1 2 3 4 5 6 7 8 9 10 11 12 13 14 15 16 17 18 19 20
000
FTUS42 KMHX 171759
TAFEWN
TAF
KEWN 171759Z 1718/1818 36008KT P6SM VCSH SCT026 BKN035
      TEMPO 1718/1720 3SM SHRA BKN025
     FM172100 04008KT P6SM BKN050
     FM180400 02006KT P6SM OVC005
     FM181500 36010KT P6SM OVC015=

USA.gov is the U.S. government's official web portal to all federal, state and local government web resources and services.